createdAt,value
2018-08-09T00:02:03.166Z,16.70
2018-08-09T00:05:07.377Z,16.70
2018-08-09T00:08:11.577Z,16.60
2018-08-09T00:11:15.789Z,16.50
2018-08-09T00:14:20.006Z,16.50
2018-08-09T00:17:24.224Z,16.40
2018-08-09T00:20:28.444Z,16.30
2018-08-09T00:23:32.620Z,16.30
2018-08-09T00:26:36.837Z,16.20
2018-08-09T00:29:41.027Z,16.20
2018-08-09T00:32:45.227Z,16.20
2018-08-09T00:35:49.412Z,16.30
2018-08-09T00:38:53.732Z,16.20
2018-08-09T00:41:57.961Z,16.20
2018-08-09T00:45:02.172Z,16.30
2018-08-09T00:48:06.501Z,16.20
2018-08-09T00:51:10.716Z,16.20
2018-08-09T00:54:14.913Z,16.30
2018-08-09T00:57:19.129Z,16.30
2018-08-09T01:00:23.348Z,16.30
2018-08-09T01:03:27.540Z,16.30
2018-08-09T01:06:31.752Z,16.30
2018-08-09T01:09:35.957Z,16.40
2018-08-09T01:12:40.172Z,16.40
2018-08-09T01:15:44.484Z,16.40
2018-08-09T01:18:48.707Z,16.40
2018-08-09T01:21:52.930Z,16.40
2018-08-09T01:24:57.158Z,16.50
2018-08-09T01:28:01.373Z,16.50
2018-08-09T01:31:05.593Z,16.60
2018-08-09T01:34:10.738Z,16.60
2018-08-09T01:37:14.960Z,16.60
2018-08-09T01:40:19.169Z,16.60
2018-08-09T01:43:40.636Z,16.50
2018-08-09T01:46:44.845Z,16.50
2018-08-09T01:49:49.048Z,16.40
2018-08-09T01:52:53.262Z,16.40
2018-08-09T01:55:57.657Z,16.40
2018-08-09T01:59:01.878Z,16.40
2018-08-09T02:02:06.141Z,16.40
2018-08-09T02:05:10.849Z,16.40
2018-08-09T02:08:15.073Z,16.30
2018-08-09T02:11:19.264Z,16.30
2018-08-09T02:14:23.497Z,16.30
2018-08-09T02:17:27.711Z,16.30
2018-08-09T02:20:32.005Z,16.30
2018-08-09T02:23:36.197Z,16.30
2018-08-09T02:26:40.382Z,16.30
2018-08-09T02:29:44.601Z,16.30
2018-08-09T02:32:48.863Z,16.40
2018-08-09T02:35:53.074Z,16.40
2018-08-09T02:38:57.289Z,16.40
2018-08-09T02:42:01.513Z,16.40
2018-08-09T02:45:05.732Z,16.40
2018-08-09T02:48:09.934Z,16.30
2018-08-09T02:51:14.162Z,16.40
2018-08-09T02:54:18.382Z,16.40
2018-08-09T02:57:22.600Z,16.40
2018-08-09T03:00:26.830Z,16.50
2018-08-09T03:03:31.053Z,16.50
2018-08-09T03:06:35.334Z,16.50
2018-08-09T03:09:39.584Z,16.50
2018-08-09T03:12:43.842Z,16.50
2018-08-09T03:15:48.064Z,16.60
2018-08-09T03:18:52.646Z,16.60
2018-08-09T03:21:56.911Z,16.60
2018-08-09T03:25:01.157Z,16.60
2018-08-09T03:28:05.393Z,16.60
2018-08-09T03:31:09.619Z,16.50
2018-08-09T03:34:13.861Z,16.50
2018-08-09T03:37:18.061Z,16.40
2018-08-09T03:40:22.300Z,16.40
2018-08-09T03:43:26.537Z,16.30
2018-08-09T03:46:30.777Z,16.30
2018-08-09T03:49:35.118Z,16.30
2018-08-09T03:52:39.326Z,16.30
2018-08-09T03:55:43.587Z,16.30
2018-08-09T03:58:47.806Z,16.30
2018-08-09T04:01:52.018Z,16.30
2018-08-09T04:04:56.282Z,16.30
2018-08-09T04:08:00.482Z,16.40
2018-08-09T04:11:04.748Z,16.40
2018-08-09T04:14:09.320Z,16.40
2018-08-09T04:17:18.975Z,16.40
2018-08-09T04:20:23.246Z,16.40
2018-08-09T04:23:27.441Z,16.40
2018-08-09T04:26:31.732Z,16.40
2018-08-09T04:29:35.940Z,16.40
2018-08-09T04:32:40.173Z,16.40
2018-08-09T04:35:44.471Z,16.40
2018-08-09T04:38:48.716Z,16.40
2018-08-09T04:41:53.018Z,16.40
2018-08-09T04:44:57.246Z,16.50
2018-08-09T04:48:01.509Z,16.50
2018-08-09T04:51:05.746Z,16.50
2018-08-09T04:54:09.985Z,16.60
2018-08-09T04:57:14.224Z,16.60
2018-08-09T05:00:18.472Z,16.60
2018-08-09T05:03:22.689Z,16.70
2018-08-09T05:06:26.930Z,16.70
2018-08-09T05:09:31.155Z,16.80
2018-08-09T05:12:35.397Z,16.80
2018-08-09T05:15:39.628Z,16.80
2018-08-09T05:18:43.874Z,16.90
2018-08-09T05:21:48.141Z,16.90
2018-08-09T05:24:52.358Z,17.00
2018-08-09T05:27:56.603Z,17.00
2018-08-09T05:31:00.829Z,17.10
2018-08-09T05:34:05.152Z,17.10
2018-08-09T05:37:09.346Z,17.10
2018-08-09T05:40:13.636Z,17.20
2018-08-09T05:43:17.885Z,17.20
2018-08-09T05:46:22.126Z,17.30
2018-08-09T05:49:26.408Z,17.30
2018-08-09T05:52:30.623Z,17.40
2018-08-09T05:55:34.829Z,17.50
2018-08-09T05:58:39.061Z,17.60
2018-08-09T06:01:43.338Z,17.70
2018-08-09T06:04:47.583Z,17.80
2018-08-09T06:07:51.808Z,17.90
2018-08-09T06:10:56.061Z,18.00
2018-08-09T06:14:00.307Z,18.10
2018-08-09T06:17:04.545Z,18.10
2018-08-09T06:20:08.761Z,18.20
2018-08-09T06:23:13.028Z,18.20
2018-08-09T06:26:17.276Z,18.30
2018-08-09T06:29:21.486Z,18.40
2018-08-09T06:32:25.698Z,18.50
2018-08-09T06:35:29.913Z,18.60
2018-08-09T06:38:34.097Z,18.70
2018-08-09T06:41:39.031Z,18.70
2018-08-09T06:44:43.240Z,18.80
2018-08-09T06:47:47.451Z,18.80
2018-08-09T06:50:51.673Z,18.90
2018-08-09T06:53:55.885Z,19.00
2018-08-09T06:57:00.091Z,19.10
2018-08-09T07:00:05.804Z,19.10
2018-08-09T07:03:09.976Z,19.20
2018-08-09T07:06:14.212Z,19.30
2018-08-09T07:09:18.404Z,19.40
2018-08-09T07:12:22.617Z,19.40
2018-08-09T07:15:26.830Z,19.40
2018-08-09T07:18:31.085Z,19.40
2018-08-09T07:21:35.316Z,19.50
2018-08-09T07:24:39.548Z,19.70
2018-08-09T07:27:43.740Z,19.80
2018-08-09T07:30:47.960Z,19.90
2018-08-09T07:33:52.228Z,20.00
2018-08-09T07:36:56.482Z,20.10
2018-08-09T07:40:00.714Z,20.20
2018-08-09T07:43:04.976Z,20.30
2018-08-09T07:46:09.857Z,20.50
2018-08-09T07:49:14.097Z,20.50
2018-08-09T07:52:18.314Z,20.70
2018-08-09T07:55:22.553Z,20.80
2018-08-09T07:58:26.921Z,20.90
2018-08-09T08:01:31.147Z,20.90
2018-08-09T08:04:35.372Z,21.00
2018-08-09T08:07:39.609Z,21.20
2018-08-09T08:10:43.844Z,21.20
2018-08-09T08:13:48.072Z,21.40
2018-08-09T08:16:52.316Z,21.50
2018-08-09T08:19:56.548Z,21.70
2018-08-09T08:23:00.772Z,21.90
2018-08-09T08:26:05.082Z,22.00
2018-08-09T08:29:09.336Z,22.20
2018-08-09T08:32:13.561Z,22.40
2018-08-09T08:35:17.801Z,22.50
2018-08-09T08:38:22.045Z,22.70
2018-08-09T08:41:26.314Z,22.80
2018-08-09T08:44:30.554Z,22.90
2018-08-09T08:47:34.779Z,22.90
2018-08-09T08:50:38.998Z,22.90
2018-08-09T08:53:43.249Z,22.80
2018-08-09T08:56:47.496Z,22.80
2018-08-09T08:59:51.752Z,22.70
2018-08-09T09:02:55.977Z,22.70
2018-08-09T09:06:00.193Z,22.80
2018-08-09T09:09:07.882Z,23.00
2018-08-09T09:12:12.104Z,23.10
2018-08-09T09:15:16.552Z,23.30
2018-08-09T09:18:20.800Z,23.20
2018-08-09T09:21:25.049Z,23.30
2018-08-09T09:24:29.372Z,23.30
2018-08-09T09:27:33.700Z,23.40
2018-08-09T09:30:37.962Z,23.50
2018-08-09T09:33:42.184Z,23.70
2018-08-09T09:36:46.485Z,23.80
2018-08-09T09:39:50.727Z,24.00
2018-08-09T09:42:55.006Z,24.10
2018-08-09T09:45:59.256Z,24.10
2018-08-09T09:49:03.582Z,24.10
2018-08-09T09:52:07.805Z,24.10
2018-08-09T09:55:12.043Z,24.20
2018-08-09T09:58:16.342Z,24.20
2018-08-09T10:01:25.728Z,24.20
2018-08-09T10:04:29.977Z,24.20
2018-08-09T10:07:34.217Z,24.20
2018-08-09T10:10:38.460Z,24.20
2018-08-09T10:13:42.721Z,24.10
2018-08-09T10:16:46.971Z,24.00
2018-08-09T10:19:51.249Z,24.10
2018-08-09T10:22:55.444Z,24.30
2018-08-09T10:25:59.686Z,24.50
2018-08-09T10:29:03.941Z,24.60
2018-08-09T10:32:08.171Z,24.70
2018-08-09T10:35:12.573Z,24.90
2018-08-09T10:38:16.794Z,25.00
2018-08-09T10:41:21.008Z,25.00
2018-08-09T10:44:25.232Z,25.00
2018-08-09T10:47:29.437Z,25.10
2018-08-09T10:50:33.675Z,25.10
2018-08-09T10:53:37.910Z,25.10
2018-08-09T10:56:42.128Z,25.20
2018-08-09T10:59:46.341Z,25.30
2018-08-09T11:02:50.552Z,25.40
2018-08-09T11:05:54.769Z,25.60
2018-08-09T11:08:59.009Z,25.70
2018-08-09T11:12:03.232Z,25.70
2018-08-09T11:15:10.653Z,25.70
2018-08-09T11:18:14.781Z,25.70
2018-08-09T11:21:19.025Z,25.70
2018-08-09T11:24:23.245Z,25.60
2018-08-09T11:27:27.457Z,25.60
2018-08-09T11:30:31.680Z,25.50
2018-08-09T11:33:35.933Z,25.40
2018-08-09T11:36:40.138Z,25.50
2018-08-09T11:39:44.351Z,25.50
2018-08-09T11:42:48.559Z,25.70
2018-08-09T11:45:52.780Z,25.70
2018-08-09T11:48:56.973Z,25.70
2018-08-09T11:52:01.186Z,25.60
2018-08-09T11:55:05.417Z,25.50
2018-08-09T11:58:09.695Z,25.50
2018-08-09T12:01:13.897Z,25.40
2018-08-09T12:04:18.189Z,25.40
2018-08-09T12:07:22.395Z,25.40
2018-08-09T12:10:26.616Z,25.40
2018-08-09T12:13:30.881Z,25.40
2018-08-09T12:16:35.468Z,25.30
2018-08-09T12:19:39.702Z,25.20
2018-08-09T12:22:43.931Z,25.20
2018-08-09T12:25:48.178Z,25.30
2018-08-09T12:28:52.378Z,25.40
2018-08-09T12:31:56.620Z,25.40
2018-08-09T12:35:00.841Z,25.40
2018-08-09T12:38:05.080Z,25.30
2018-08-09T12:41:09.309Z,25.30
2018-08-09T12:44:13.541Z,25.20
2018-08-09T12:47:17.741Z,25.20
2018-08-09T12:50:21.950Z,25.20
2018-08-09T12:53:26.201Z,25.30
2018-08-09T12:56:30.541Z,25.40
2018-08-09T12:59:34.756Z,25.30
2018-08-09T13:02:39.137Z,25.20
2018-08-09T13:05:43.425Z,25.10
2018-08-09T13:08:47.605Z,25.10
2018-08-09T13:11:51.842Z,25.10
2018-08-09T13:14:56.092Z,24.90
2018-08-09T13:18:00.305Z,24.80
2018-08-09T13:21:04.545Z,24.80
2018-08-09T13:24:08.801Z,24.90
2018-08-09T13:27:13.104Z,25.00
2018-08-09T13:30:17.354Z,25.10
2018-08-09T13:33:21.554Z,25.20
2018-08-09T13:36:26.153Z,25.30
2018-08-09T13:39:30.366Z,25.20
2018-08-09T13:42:34.621Z,25.20
2018-08-09T13:45:38.813Z,25.10
2018-08-09T13:48:43.027Z,24.90
2018-08-09T13:51:47.268Z,24.90
2018-08-09T13:54:51.506Z,24.80
2018-08-09T13:57:55.770Z,24.80
2018-08-09T14:00:59.973Z,24.80
2018-08-09T14:04:04.215Z,24.80
2018-08-09T14:07:08.937Z,24.90
2018-08-09T14:10:13.381Z,25.10
2018-08-09T14:13:17.596Z,25.30
2018-08-09T14:16:21.833Z,25.40
2018-08-09T14:19:26.056Z,25.40
2018-08-09T14:22:30.274Z,25.40
2018-08-09T14:25:34.475Z,25.40
2018-08-09T14:28:38.711Z,25.40
2018-08-09T14:31:42.933Z,25.20
2018-08-09T14:34:47.185Z,25.30
2018-08-09T14:37:51.487Z,25.20
2018-08-09T14:40:55.655Z,25.00
2018-08-09T14:43:59.868Z,24.90
2018-08-09T14:47:04.121Z,24.80
2018-08-09T14:50:08.519Z,24.60
2018-08-09T14:53:12.765Z,24.40
2018-08-09T14:56:16.996Z,24.20
2018-08-09T14:59:21.212Z,24.10
2018-08-09T15:02:25.613Z,23.90
2018-08-09T15:05:29.844Z,23.70
2018-08-09T15:08:34.052Z,23.50
2018-08-09T15:11:38.292Z,23.40
2018-08-09T15:14:42.510Z,23.30
2018-08-09T15:17:46.749Z,23.20
2018-08-09T15:20:50.999Z,23.10
2018-08-09T15:23:55.258Z,23.10
2018-08-09T15:26:59.475Z,22.90
2018-08-09T15:30:03.731Z,22.90
2018-08-09T15:33:07.985Z,23.00
2018-08-09T15:36:12.229Z,23.00
2018-08-09T15:39:16.896Z,23.00
2018-08-09T15:42:21.129Z,23.30
2018-08-09T15:45:25.340Z,23.40
2018-08-09T15:48:29.590Z,23.50
2018-08-09T15:51:33.817Z,23.50
2018-08-09T15:54:38.064Z,23.50
2018-08-09T15:57:42.293Z,23.50
2018-08-09T16:00:46.508Z,23.30
2018-08-09T16:03:50.778Z,23.10
2018-08-09T16:06:54.995Z,22.80
2018-08-09T16:09:59.229Z,22.60
2018-08-09T16:13:03.445Z,22.40
2018-08-09T16:16:07.754Z,22.30
2018-08-09T16:19:11.924Z,22.10
2018-08-09T16:22:16.159Z,21.90
2018-08-09T16:25:20.804Z,21.70
2018-08-09T16:28:25.058Z,21.60
2018-08-09T16:31:29.309Z,21.50
2018-08-09T16:34:33.553Z,21.40
2018-08-09T16:37:37.957Z,21.40
2018-08-09T16:40:42.203Z,21.40
2018-08-09T16:43:46.461Z,21.50
2018-08-09T16:46:50.748Z,21.60
2018-08-09T16:49:54.972Z,21.70
2018-08-09T16:52:59.216Z,21.80
2018-08-09T16:56:03.517Z,21.80
2018-08-09T16:59:07.741Z,21.80
2018-08-09T17:02:11.985Z,21.70
2018-08-09T17:05:21.589Z,21.80
2018-08-09T17:08:25.853Z,21.70
2018-08-09T17:11:30.063Z,21.80
2018-08-09T17:14:34.296Z,21.80
2018-08-09T17:17:38.569Z,21.80
2018-08-09T17:20:42.799Z,21.90
2018-08-09T17:23:47.046Z,21.80
2018-08-09T17:26:51.268Z,21.80
2018-08-09T17:29:55.489Z,21.80
2018-08-09T17:33:00.013Z,21.80
2018-08-09T17:36:04.253Z,21.70
2018-08-09T17:39:11.509Z,21.70
2018-08-09T17:42:15.763Z,21.80
2018-08-09T17:45:22.738Z,21.90
2018-08-09T17:48:26.989Z,22.00
2018-08-09T17:51:31.193Z,21.90
2018-08-09T17:54:35.412Z,21.90
2018-08-09T17:57:40.533Z,21.90
2018-08-09T18:00:44.794Z,21.90
2018-08-09T18:03:49.051Z,21.90
2018-08-09T18:06:53.276Z,22.00
2018-08-09T18:09:57.493Z,22.00
2018-08-09T18:13:01.785Z,22.00
2018-08-09T18:16:06.192Z,22.00
2018-08-09T18:19:10.443Z,22.00
2018-08-09T18:22:14.716Z,22.00
2018-08-09T18:25:18.913Z,21.60
2018-08-09T18:28:23.124Z,20.80
2018-08-09T18:31:27.305Z,20.70
2018-08-09T18:34:31.512Z,20.50
2018-08-09T18:37:35.720Z,20.30
2018-08-09T18:40:39.937Z,20.20
2018-08-09T18:43:44.193Z,20.00
2018-08-09T18:46:48.402Z,19.80
2018-08-09T18:49:52.612Z,19.60
2018-08-09T18:52:57.113Z,19.40
2018-08-09T18:56:01.341Z,19.20
2018-08-09T18:59:05.632Z,19.10
2018-08-09T19:02:09.865Z,19.10
2018-08-09T19:05:14.192Z,19.10
2018-08-09T19:08:18.385Z,19.00
2018-08-09T19:11:22.724Z,18.90
2018-08-09T19:14:26.942Z,18.90
2018-08-09T19:17:31.168Z,18.90
2018-08-09T19:20:36.356Z,19.00
2018-08-09T19:23:40.580Z,19.00
2018-08-09T19:26:44.874Z,19.00
2018-08-09T19:29:49.197Z,18.90
2018-08-09T19:32:53.467Z,19.00
2018-08-09T19:35:57.720Z,19.00
2018-08-09T19:39:02.055Z,18.90
2018-08-09T19:42:06.194Z,19.00
2018-08-09T19:45:14.402Z,19.00
2018-08-09T19:48:18.679Z,19.00
2018-08-09T19:51:22.909Z,19.00
2018-08-09T19:54:27.129Z,19.00
2018-08-09T19:57:31.369Z,19.00
2018-08-09T20:00:35.604Z,19.00
2018-08-09T20:03:39.854Z,18.90
2018-08-09T20:06:44.138Z,18.90
2018-08-09T20:09:48.353Z,18.90
2018-08-09T20:12:52.565Z,18.90
2018-08-09T20:15:56.841Z,18.90
2018-08-09T20:19:01.054Z,18.80
2018-08-09T20:22:07.483Z,18.80
2018-08-09T20:25:12.615Z,18.70
2018-08-09T20:28:16.817Z,18.80
2018-08-09T20:31:21.045Z,18.80
2018-08-09T20:34:25.257Z,18.70
2018-08-09T20:37:29.464Z,18.70
2018-08-09T20:40:33.685Z,18.80
2018-08-09T20:43:37.885Z,18.80
2018-08-09T20:46:42.118Z,18.80
2018-08-09T20:49:46.318Z,18.80
2018-08-09T20:52:51.103Z,18.80
2018-08-09T20:55:55.340Z,18.70
2018-08-09T20:58:59.587Z,18.70
2018-08-09T21:02:03.868Z,18.70
2018-08-09T21:05:08.073Z,18.70
2018-08-09T21:08:12.298Z,18.70
2018-08-09T21:11:16.541Z,18.70
2018-08-09T21:14:20.780Z,18.80
2018-08-09T21:17:24.992Z,18.80
2018-08-09T21:20:29.214Z,18.90
2018-08-09T21:23:33.462Z,18.90
2018-08-09T21:26:37.674Z,19.00
2018-08-09T21:29:42.660Z,19.00
2018-08-09T21:32:47.368Z,19.10
2018-08-09T21:35:51.628Z,19.10
2018-08-09T21:38:55.906Z,19.20
2018-08-09T21:42:00.126Z,19.30
2018-08-09T21:45:05.614Z,19.30
2018-08-09T21:48:09.887Z,19.30
2018-08-09T21:51:14.106Z,19.40
2018-08-09T21:54:18.384Z,19.40
2018-08-09T21:57:22.637Z,19.40
2018-08-09T22:01:04.228Z,19.40
2018-08-09T22:04:08.442Z,19.40
2018-08-09T22:07:17.857Z,19.50
2018-08-09T22:10:27.402Z,19.50
2018-08-09T22:13:36.973Z,19.40
2018-08-09T22:16:46.529Z,19.40
2018-08-09T22:19:56.027Z,19.50
2018-08-09T22:23:00.258Z,19.40
2018-08-09T22:26:04.499Z,19.40
2018-08-09T22:29:08.754Z,19.40
2018-08-09T22:32:12.957Z,19.40
2018-08-09T22:35:17.215Z,19.40
2018-08-09T22:38:21.426Z,19.50
2018-08-09T22:41:25.649Z,19.50
2018-08-09T22:44:29.894Z,19.50
2018-08-09T22:47:34.116Z,19.50
2018-08-09T22:50:38.341Z,19.50
2018-08-09T22:53:42.601Z,19.50
2018-08-09T22:56:46.821Z,19.50
2018-08-09T22:59:51.040Z,19.50
2018-08-09T23:02:55.328Z,19.50
2018-08-09T23:05:59.574Z,19.50
2018-08-09T23:09:04.126Z,19.50
2018-08-09T23:12:08.367Z,19.50
2018-08-09T23:15:12.789Z,19.50
2018-08-09T23:18:17.009Z,19.50
2018-08-09T23:21:21.205Z,19.50
2018-08-09T23:24:25.430Z,19.60
2018-08-09T23:27:29.644Z,19.60
2018-08-09T23:30:33.856Z,19.60
2018-08-09T23:33:38.088Z,19.60
2018-08-09T23:36:42.305Z,19.50
2018-08-09T23:39:46.542Z,19.60
2018-08-09T23:42:50.766Z,19.70
2018-08-09T23:45:54.989Z,19.70
2018-08-09T23:48:59.207Z,19.60
2018-08-09T23:52:03.514Z,19.60
2018-08-09T23:55:13.565Z,19.60
2018-08-09T23:58:49.217Z,19.50
